Deweyville, Texas
Current Conditions -  °F | °C
As of 8:35 PM on Friday 21 Nov 2014 (Local Time) from KORG Reporting Station
Overcast Overcast  
Wind Chill: 63°   Ceiling: 10000
Heat Index: 63°   Visibility: 10mi
Dew Point: 55°   Wind: 12mph
Humidity: 77%   Direction: 100°E
Pressure: 30.2"   Gusts: 17mph
Location:  30.3°N, 93.74°W
Report Text: KORG 220235Z AUTO 10010G15KT 10SM OVC100 17/13 A3020 RMK AO2 T01710130
Loading
Personal Weather Stations






























Interactive Weather Map New forecast layout! Learn more

10-Day Weather Forecast

Advertisements
Track Severe Weather on mobile